Time;durP1;ratioP1;P1;durP2;ratioP2;P2;SDS_P1;SDS_P2;PMS_P1;PMS_P2;Temp;Humidity;BMP_temperature;BMP_pressure;BME280_temperature;BME280_humidity;BME280_pressure;Samples;Min_cycle;Max_cycle;Signal;HPM_P1;HPM_P2
2022/11/05 06:00:26;;;;;;;1.63;1.53;;;10.80;97.20;;;;;;1674405;29;20190;-72
2022/11/05 06:01:17;;;;;;;2.28;1.50;;;10.90;97.20;;;;;;1674353;29;20202;-72
2022/11/05 06:02:11;;;;;;;1.42;1.23;;;10.80;97.20;;;;;;1671719;29;20202;-72
2022/11/05 06:03:02;;;;;;;1.58;1.40;;;10.90;97.20;;;;;;1674635;29;20202;-72
2022/11/05 06:03:53;;;;;;;2.93;1.60;;;10.90;97.20;;;;;;1674245;29;20209;-72
2022/11/05 06:04:44;;;;;;;1.77;1.38;;;10.90;97.20;;;;;;1674933;29;20202;-72
2022/11/05 06:05:36;;;;;;;1.60;1.37;;;10.90;97.20;;;;;;1674997;29;20716;-72
2022/11/05 06:06:27;;;;;;;1.70;1.45;;;10.90;97.20;;;;;;1674848;29;20217;-72
2022/11/05 06:07:18;;;;;;;1.63;1.47;;;10.90;97.20;;;;;;1674842;29;20289;-72
2022/11/05 06:08:09;;;;;;;3.15;1.30;;;10.90;97.20;;;;;;1674932;29;20455;-72
2022/11/05 06:09:01;;;;;;;1.37;1.27;;;10.90;97.20;;;;;;1674914;29;20208;-72
2022/11/05 06:09:52;;;;;;;2.33;1.40;;;10.90;97.20;;;;;;1674971;29;20209;-72
2022/11/05 06:10:50;;;;;;;1.53;1.27;;;10.90;97.20;;;;;;1674600;29;20253;-72
2022/11/05 06:11:41;;;;;;;2.08;1.52;;;10.90;97.20;;;;;;1674931;29;20210;-72
2022/11/05 06:12:33;;;;;;;1.90;1.40;;;10.80;97.20;;;;;;1674912;29;20201;-72
2022/11/05 06:13:23;;;;;;;1.23;1.13;;;10.90;97.20;;;;;;1674542;29;20463;-72
2022/11/05 06:14:15;;;;;;;2.53;1.80;;;10.90;97.20;;;;;;1674666;29;20297;-72
2022/11/05 06:15:07;;;;;;;1.60;1.50;;;10.90;97.20;;;;;;1674836;29;20462;-72
2022/11/05 06:16:02;;;;;;;1.50;1.40;;;10.90;97.20;;;;;;1674912;29;20210;-72
2022/11/05 06:16:53;;;;;;;2.45;1.60;;;10.90;97.20;;;;;;1674634;29;20221;-72
2022/11/05 06:17:45;;;;;;;4.80;1.60;;;10.90;97.20;;;;;;1674412;29;20206;-72
2022/11/05 06:18:36;;;;;;;1.70;1.40;;;10.90;97.20;;;;;;1674867;29;20209;-72
2022/11/05 06:19:28;;;;;;;1.33;1.15;;;10.90;97.20;;;;;;1674967;29;20737;-71
2022/11/05 06:20:18;;;;;;;1.88;1.50;;;10.90;97.20;;;;;;1674774;29;20245;-72
2022/11/05 06:21:12;;;;;;;1.73;1.50;;;10.90;97.20;;;;;;1674899;29;20213;-72
2022/11/05 06:22:03;;;;;;;4.90;1.60;;;10.90;97.20;;;;;;1674976;29;20217;-72
2022/11/05 06:22:55;;;;;;;1.63;1.53;;;10.90;97.20;;;;;;1674607;29;20202;-72
2022/11/05 06:23:47;;;;;;;1.63;1.40;;;10.90;97.20;;;;;;1674833;29;20214;-72
2022/11/05 06:24:38;;;;;;;1.48;1.27;;;10.90;97.20;;;;;;1674613;29;20190;-72
2022/11/05 06:25:29;;;;;;;1.60;1.50;;;10.90;97.20;;;;;;1674815;29;20213;-72
2022/11/05 06:26:21;;;;;;;2.73;1.40;;;10.90;97.20;;;;;;1674912;29;20214;-72
2022/11/05 06:27:11;;;;;;;2.03;1.58;;;10.90;97.20;;;;;;1674782;29;20217;-72
2022/11/05 06:28:04;;;;;;;1.53;1.37;;;10.90;97.20;;;;;;1674972;29;20220;-72
2022/11/05 06:28:54;;;;;;;2.33;1.70;;;10.90;97.20;;;;;;1674865;29;20209;-72
2022/11/05 06:29:46;;;;;;;3.93;1.50;;;10.90;97.20;;;;;;1674814;29;20202;-72
2022/11/05 06:30:37;;;;;;;1.40;1.30;;;10.90;97.20;;;;;;1674733;29;20712;-72
2022/11/05 06:31:30;;;;;;;1.93;1.50;;;10.90;97.20;;;;;;1674855;29;20603;-72
2022/11/05 06:32:20;;;;;;;1.95;1.80;;;10.90;97.20;;;;;;1674846;29;20201;-72
2022/11/05 06:33:12;;;;;;;1.43;1.33;;;10.90;97.20;;;;;;1674934;29;20680;-72
2022/11/05 06:34:04;;;;;;;1.45;1.33;;;10.90;97.20;;;;;;1674664;29;20699;-72
2022/11/05 06:34:56;;;;;;;1.53;1.30;;;10.90;97.20;;;;;;1674882;29;20637;-72
2022/11/05 06:35:46;;;;;;;1.80;1.55;;;10.90;97.20;;;;;;1674771;29;20210;-72
2022/11/05 06:36:39;;;;;;;1.80;1.70;;;10.90;97.20;;;;;;1674594;29;20202;-72
2022/11/05 06:37:32;;;;;;;2.63;1.90;;;10.90;97.20;;;;;;1674878;29;20206;-72
2022/11/05 06:38:23;;;;;;;2.45;1.52;;;10.90;97.20;;;;;;1674885;29;20209;-72
2022/11/05 06:39:14;;;;;;;2.75;1.80;;;10.90;97.20;;;;;;1674818;29;20210;-72
2022/11/05 06:40:07;;;;;;;2.23;2.03;;;10.90;97.20;;;;;;1674864;29;20225;-72
2022/11/05 06:40:59;;;;;;;2.67;1.70;;;10.90;97.20;;;;;;1674881;29;20696;-72
2022/11/05 06:41:51;;;;;;;1.73;1.63;;;11.00;97.20;;;;;;1674874;29;20198;-72
2022/11/05 06:42:41;;;;;;;3.10;1.80;;;10.90;97.20;;;;;;1674804;29;20217;-72
2022/11/05 06:43:33;;;;;;;1.50;1.40;;;11.00;97.20;;;;;;1674872;29;20280;-72
2022/11/05 06:44:24;;;;;;;1.63;1.23;;;11.00;97.20;;;;;;1674570;29;20213;-72
2022/11/05 06:45:16;;;;;;;1.87;1.77;;;11.00;97.20;;;;;;1674752;29;20216;-72
2022/11/05 06:46:07;;;;;;;2.15;1.95;;;11.00;97.20;;;;;;1674852;29;20213;-73
2022/11/05 06:47:00;;;;;;;2.00;1.90;;;11.00;97.20;;;;;;1674785;29;20574;-72
2022/11/05 06:47:54;;;;;;;3.47;2.05;;;11.00;97.20;;;;;;1674837;29;20221;-72
2022/11/05 06:48:47;;;;;;;1.83;1.73;;;11.00;97.20;;;;;;1674792;29;20243;-72
2022/11/05 06:49:38;;;;;;;2.63;2.25;;;11.00;97.20;;;;;;1674827;29;20261;-72
2022/11/05 06:50:29;;;;;;;2.90;2.50;;;11.00;97.20;;;;;;1674498;29;20212;-72
2022/11/05 06:51:20;;;;;;;2.92;2.63;;;11.00;97.20;;;;;;1674848;29;20722;-72
2022/11/05 06:52:13;;;;;;;3.00;2.70;;;11.00;97.20;;;;;;1674851;29;20684;-72
2022/11/05 06:53:04;;;;;;;7.63;2.55;;;11.00;97.20;;;;;;1674795;29;20216;-72
2022/11/05 06:53:56;;;;;;;2.60;2.40;;;11.00;97.20;;;;;;1674605;29;20284;-72
2022/11/05 06:54:47;;;;;;;2.35;2.15;;;11.00;97.20;;;;;;1674530;29;20598;-72
2022/11/05 06:55:39;;;;;;;3.50;2.67;;;11.00;97.20;;;;;;1674681;29;20570;-72
2022/11/05 06:56:30;;;;;;;2.17;1.92;;;11.10;97.20;;;;;;1674834;29;20669;-72
2022/11/05 06:57:21;;;;;;;3.00;2.47;;;11.10;97.20;;;;;;1674775;29;20575;-72
2022/11/05 06:58:13;;;;;;;7.22;2.03;;;11.10;97.20;;;;;;1674773;29;20217;-72
2022/11/05 06:59:05;;;;;;;2.25;2.05;;;11.10;97.20;;;;;;1674818;29;20582;-71
2022/11/05 06:59:55;;;;;;;3.13;2.35;;;11.10;97.20;;;;;;1674764;29;20217;-72
2022/11/05 07:00:47;;;;;;;2.70;2.50;;;11.10;97.20;;;;;;1674826;29;20739;-72
2022/11/05 07:01:38;;;;;;;2.78;2.58;;;11.10;97.20;;;;;;1674733;29;20202;-72
2022/11/05 07:02:31;;;;;;;2.50;2.30;;;11.10;97.20;;;;;;1674856;29;20214;-72
2022/11/05 07:03:22;;;;;;;2.80;2.05;;;11.10;97.20;;;;;;1674879;29;20209;-72
2022/11/05 07:04:13;;;;;;;2.80;2.13;;;11.10;97.20;;;;;;1674516;29;20210;-72
2022/11/05 07:05:06;;;;;;;3.25;2.15;;;11.10;97.20;;;;;;1674565;29;20206;-72
2022/11/05 07:05:59;;;;;;;3.13;1.92;;;11.10;97.20;;;;;;1674878;29;20202;-72
2022/11/05 07:06:50;;;;;;;2.65;2.08;;;11.10;97.20;;;;;;1674738;29;20628;-73
2022/11/05 07:07:43;;;;;;;3.23;2.93;;;11.10;97.20;;;;;;1674740;29;20206;-72
2022/11/05 07:08:35;;;;;;;2.70;2.50;;;11.10;97.20;;;;;;1674716;29;20217;-72
2022/11/05 07:09:27;;;;;;;3.65;3.00;;;11.10;97.20;;;;;;1674732;29;20205;-72
2022/11/05 07:10:18;;;;;;;3.47;3.25;;;11.10;97.20;;;;;;1674805;29;20213;-73
2022/11/05 07:11:10;;;;;;;3.13;2.85;;;11.10;97.20;;;;;;1674757;29;20208;-72
2022/11/05 07:12:00;;;;;;;3.45;3.15;;;11.10;97.20;;;;;;1674729;29;20217;-73
2022/11/05 07:12:52;;;;;;;2.60;2.40;;;11.10;97.20;;;;;;1674776;29;20206;-73
2022/11/05 07:13:43;;;;;;;2.30;2.08;;;11.10;97.20;;;;;;1674768;29;20205;-72
2022/11/05 07:14:34;;;;;;;2.87;2.50;;;11.10;97.20;;;;;;1674389;29;20202;-72
2022/11/05 07:15:25;;;;;;;2.00;1.90;;;11.10;97.20;;;;;;1674617;29;20217;-72
2022/11/05 07:16:17;;;;;;;2.10;1.90;;;11.10;97.20;;;;;;1674645;29;20202;-72
2022/11/05 07:17:08;;;;;;;2.60;2.40;;;11.10;97.20;;;;;;1674594;29;20300;-73
2022/11/05 07:18:02;;;;;;;1.80;1.70;;;11.10;97.20;;;;;;1674645;29;20213;-72
2022/11/05 07:18:54;;;;;;;2.63;2.08;;;11.10;97.20;;;;;;1674810;29;20210;-72
2022/11/05 07:19:46;;;;;;;2.45;2.25;;;11.10;97.20;;;;;;1674721;29;20202;-71
2022/11/05 07:20:37;;;;;;;2.67;2.47;;;11.10;97.20;;;;;;1674587;29;20226;-71
2022/11/05 07:21:28;;;;;;;4.27;3.23;;;11.00;97.20;;;;;;1674429;29;20204;-70
2022/11/05 07:22:19;;;;;;;3.10;2.80;;;11.00;97.20;;;;;;1673728;29;21814;-73
2022/11/05 07:23:13;;;;;;;2.97;2.67;;;11.00;97.20;;;;;;1674645;29;20206;-73
2022/11/05 07:24:05;;;;;;;2.63;2.42;;;11.00;97.20;;;;;;1674435;29;20660;-73
2022/11/05 07:24:57;;;;;;;2.63;2.42;;;11.00;97.20;;;;;;1674854;29;20202;-72
2022/11/05 07:25:47;;;;;;;2.90;2.70;;;11.00;97.20;;;;;;1675056;29;20385;-73
2022/11/05 07:26:39;;;;;;;2.60;2.40;;;11.00;97.20;;;;;;1675001;29;20202;-74
2022/11/05 07:27:30;;;;;;;4.80;2.50;;;11.00;97.20;;;;;;1675010;29;20210;-73
2022/11/05 07:28:22;;;;;;;2.53;2.33;;;10.90;97.20;;;;;;1674853;29;20198;-73
2022/11/05 07:29:12;;;;;;;3.65;3.38;;;10.90;97.20;;;;;;1676056;29;20447;-73
2022/11/05 07:30:06;;;;;;;3.80;3.50;;;10.90;97.20;;;;;;1676211;29;20206;-72
2022/11/05 07:30:57;;;;;;;3.65;3.38;;;10.90;97.20;;;;;;1675887;29;20261;-72
2022/11/05 07:31:49;;;;;;;3.17;2.88;;;10.90;97.20;;;;;;1676347;29;20567;-72
2022/11/05 07:32:40;;;;;;;3.97;3.55;;;10.90;97.20;;;;;;1675996;29;20216;-72
2022/11/05 07:33:33;;;;;;;3.90;3.60;;;10.90;97.20;;;;;;1676071;29;20202;-72
2022/11/05 07:34:24;;;;;;;5.75;4.13;;;10.80;97.20;;;;;;1675888;29;20206;-72
2022/11/05 07:35:16;;;;;;;7.87;3.90;;;10.80;97.20;;;;;;1675871;29;20229;-72
2022/11/05 07:36:07;;;;;;;4.93;4.53;;;10.90;97.20;;;;;;1676065;29;20827;-73
2022/11/05 07:36:59;;;;;;;5.15;4.28;;;10.90;97.20;;;;;;1675827;29;20210;-73
2022/11/05 07:37:52;;;;;;;4.95;4.38;;;10.90;97.20;;;;;;1675914;29;20261;-72
2022/11/05 07:38:44;;;;;;;5.50;5.00;;;10.90;97.20;;;;;;1675802;29;20198;-72
2022/11/05 07:39:35;;;;;;;6.13;5.53;;;10.90;97.20;;;;;;1675884;29;20588;-73
2022/11/05 07:40:28;;;;;;;7.33;6.17;;;10.90;97.20;;;;;;1675648;29;20281;-72
2022/11/05 07:41:19;;;;;;;6.35;5.60;;;10.90;97.20;;;;;;1675754;29;20216;-72
2022/11/05 07:42:13;;;;;;;6.50;5.90;;;10.90;97.20;;;;;;1675806;29;20202;-73
2022/11/05 07:43:03;;;;;;;7.20;6.50;;;10.90;97.20;;;;;;1675837;29;20258;-72
2022/11/05 07:43:55;;;;;;;7.37;6.57;;;10.90;97.20;;;;;;1675584;29;20209;-71
2022/11/05 07:44:46;;;;;;;6.90;6.30;;;10.90;97.20;;;;;;1675703;29;20229;-71
2022/11/05 07:45:37;;;;;;;6.70;6.00;;;10.90;97.20;;;;;;1675171;29;20220;-71
2022/11/05 07:46:28;;;;;;;5.93;5.43;;;10.90;97.20;;;;;;1675710;29;20214;-71
2022/11/05 07:47:20;;;;;;;7.70;6.97;;;10.90;97.20;;;;;;1675698;29;20210;-71
2022/11/05 07:48:11;;;;;;;7.95;7.28;;;10.90;97.20;;;;;;1675795;29;20582;-72
2022/11/05 07:49:04;;;;;;;7.80;7.13;;;10.90;97.20;;;;;;1675802;29;20293;-72
2022/11/05 07:49:54;;;;;;;8.73;7.93;;;10.90;97.20;;;;;;1675676;29;20210;-71
2022/11/05 07:50:46;;;;;;;7.90;7.10;;;10.80;97.20;;;;;;1675648;29;20253;-71
2022/11/05 07:51:37;;;;;;;9.60;8.80;;;10.80;97.20;;;;;;1674362;29;20225;-71
2022/11/05 07:52:30;;;;;;;9.47;8.63;;;10.80;97.20;;;;;;1669353;29;20289;-71
2022/11/05 07:53:22;;;;;;;10.15;9.23;;;10.80;97.20;;;;;;1669393;29;20207;-71
2022/11/05 07:54:13;;;;;;;10.43;9.52;;;10.80;97.20;;;;;;1669109;29;20210;-71
2022/11/05 07:55:05;;;;;;;10.70;9.77;;;10.90;97.20;;;;;;1669313;29;20245;-71
2022/11/05 07:55:57;;;;;;;10.20;9.38;;;10.80;97.20;;;;;;1669402;29;20214;-72
2022/11/05 07:56:49;;;;;;;10.38;9.48;;;10.90;97.20;;;;;;1669323;29;20309;-71
2022/11/05 07:57:41;;;;;;;10.48;9.48;;;10.90;97.20;;;;;;1669285;29;20210;-72
2022/11/05 07:58:35;;;;;;;10.52;9.52;;;10.90;97.20;;;;;;1669313;29;20206;-71
2022/11/05 07:59:26;;;;;;;9.65;8.75;;;10.90;97.20;;;;;;1669396;29;20246;-71
2022/11/05 08:00:20;;;;;;;10.53;9.53;;;10.90;97.20;;;;;;1669258;29;20218;-72
2022/11/05 08:01:11;;;;;;;10.43;9.52;;;10.90;97.20;;;;;;1669343;29;20218;-71
2022/11/05 08:02:02;;;;;;;10.53;9.53;;;10.90;97.20;;;;;;1669384;29;20230;-71
2022/11/05 08:02:58;;;;;;;14.13;10.60;;;10.90;97.20;;;;;;1669260;29;20218;-72
2022/11/05 08:03:50;;;;;;;11.23;10.25;;;10.90;97.20;;;;;;1669282;29;20286;-72
2022/11/05 08:04:42;;;;;;;12.95;11.65;;;11.00;97.20;;;;;;1669291;29;20202;-72
2022/11/05 08:05:36;;;;;;;13.25;12.05;;;11.00;97.20;;;;;;1669270;29;20266;-71
2022/11/05 08:06:27;;;;;;;13.80;11.90;;;11.00;97.20;;;;;;1669285;29;20210;-71
2022/11/05 08:07:18;;;;;;;12.50;11.30;;;11.00;97.20;;;;;;1669278;29;20662;-72
2022/11/05 08:08:11;;;;;;;12.48;11.30;;;11.00;97.20;;;;;;1669278;29;20211;-71
2022/11/05 08:09:03;;;;;;;12.82;11.68;;;11.00;97.20;;;;;;1669296;29;20230;-71
2022/11/05 08:09:54;;;;;;;12.73;11.55;;;11.00;97.20;;;;;;1669270;29;20574;-71
2022/11/05 08:10:46;;;;;;;12.90;11.60;;;11.00;97.20;;;;;;1669234;29;20245;-71
2022/11/05 08:11:36;;;;;;;12.48;11.35;;;11.00;97.20;;;;;;1667896;29;20211;-71
2022/11/05 08:12:28;;;;;;;12.67;11.47;;;11.00;97.20;;;;;;1671123;29;20271;-71
2022/11/05 08:13:19;;;;;;;12.32;10.77;;;11.10;97.20;;;;;;1669094;29;20210;-71
2022/11/05 08:14:10;;;;;;;12.57;11.33;;;11.10;97.20;;;;;;1668912;29;20213;-71
2022/11/05 08:15:01;;;;;;;10.82;9.73;;;11.10;97.20;;;;;;1668737;29;20697;-72
2022/11/05 08:15:55;;;;;;;11.63;10.50;;;11.10;97.20;;;;;;1668823;29;20576;-72
2022/11/05 08:16:46;;;;;;;10.77;9.80;;;11.10;97.20;;;;;;1677859;29;20449;-74
2022/11/05 08:17:38;;;;;;;10.67;9.77;;;11.10;97.20;;;;;;1681143;29;20212;-73
2022/11/05 08:18:30;;;;;;;11.00;10.05;;;11.10;97.20;;;;;;1673143;29;20202;-72
2022/11/05 08:19:22;;;;;;;11.13;10.10;;;11.10;97.20;;;;;;1675049;29;20202;-71
2022/11/05 08:20:14;;;;;;;10.52;9.63;;;11.10;97.20;;;;;;1675220;29;20210;-73
2022/11/05 08:21:07;;;;;;;10.68;9.15;;;11.10;97.20;;;;;;1675207;29;20214;-72
2022/11/05 08:21:58;;;;;;;10.00;9.10;;;11.10;97.20;;;;;;1674936;29;20214;-72
2022/11/05 08:22:50;;;;;;;10.30;9.40;;;11.10;97.20;;;;;;1674436;29;20293;-72
2022/11/05 08:23:41;;;;;;;9.20;8.30;;;11.00;97.20;;;;;;1675509;29;20672;-72
2022/11/05 08:24:33;;;;;;;9.40;8.52;;;11.10;97.20;;;;;;1674794;29;20284;-72
2022/11/05 08:25:24;;;;;;;8.85;8.00;;;11.10;97.20;;;;;;1675257;29;20688;-73
2022/11/05 08:26:16;;;;;;;10.05;9.15;;;11.10;97.20;;;;;;1675344;29;20698;-72
2022/11/05 08:27:07;;;;;;;9.32;8.40;;;11.10;97.20;;;;;;1675198;29;20209;-72
2022/11/05 08:28:00;;;;;;;9.27;8.47;;;11.10;97.20;;;;;;1675030;29;20293;-73
2022/11/05 08:28:51;;;;;;;9.85;8.85;;;11.10;97.20;;;;;;1670293;29;20462;-72
2022/11/05 08:29:42;;;;;;;9.10;8.30;;;11.10;97.20;;;;;;1669036;29;20233;-71
2022/11/05 08:30:33;;;;;;;8.57;7.78;;;11.10;97.20;;;;;;1668550;29;20337;-72
2022/11/05 08:31:25;;;;;;;8.45;7.70;;;11.10;97.20;;;;;;1673345;29;20208;-72
2022/11/05 08:32:16;;;;;;;9.65;8.80;;;11.10;97.20;;;;;;1673478;29;20614;-72
2022/11/05 08:33:10;;;;;;;8.77;8.07;;;11.10;97.20;;;;;;1673712;29;20206;-71
2022/11/05 08:34:01;;;;;;;7.95;7.28;;;11.10;97.20;;;;;;1673058;29;20688;-72
2022/11/05 08:34:52;;;;;;;8.02;7.28;;;11.20;97.20;;;;;;1673581;29;20221;-72
2022/11/05 08:35:45;;;;;;;7.80;7.20;;;11.20;97.20;;;;;;1673450;29;20214;-73
2022/11/05 08:36:36;;;;;;;7.93;6.80;;;11.20;97.20;;;;;;1673759;29;20213;-73
2022/11/05 08:37:28;;;;;;;6.90;6.30;;;11.20;97.20;;;;;;1673616;29;20206;-73
2022/11/05 08:38:19;;;;;;;7.03;6.43;;;11.20;97.20;;;;;;1673078;29;20214;-72
2022/11/05 08:39:11;;;;;;;5.88;5.38;;;11.10;97.20;;;;;;1672787;29;20270;-74
2022/11/05 08:40:02;;;;;;;6.72;6.13;;;11.10;97.20;;;;;;1673006;29;20257;-72
2022/11/05 08:40:56;;;;;;;6.80;6.20;;;11.10;97.20;;;;;;1672851;29;20305;-72
2022/11/05 08:41:47;;;;;;;6.90;6.30;;;11.10;97.20;;;;;;1673485;29;20305;-71
2022/11/05 08:42:39;;;;;;;6.38;5.88;;;11.00;97.20;;;;;;1673503;29;20222;-73
2022/11/05 08:43:29;;;;;;;7.00;6.40;;;11.00;97.20;;;;;;1673002;29;20216;-73
2022/11/05 08:44:21;;;;;;;7.03;6.50;;;10.90;97.20;;;;;;1673132;29;20212;-74
2022/11/05 08:45:12;;;;;;;6.95;6.30;;;10.90;97.20;;;;;;1673582;29;20202;-73
2022/11/05 08:46:04;;;;;;;6.50;6.00;;;10.80;97.20;;;;;;1673725;29;20250;-73
2022/11/05 08:46:54;;;;;;;6.85;6.25;;;10.80;97.20;;;;;;1673295;29;20198;-72
2022/11/05 08:47:46;;;;;;;6.73;6.13;;;10.80;97.20;;;;;;1673624;29;20210;-73
2022/11/05 08:48:37;;;;;;;7.30;6.70;;;10.80;97.20;;;;;;1671924;29;20219;-72
2022/11/05 08:49:28;;;;;;;6.80;6.20;;;10.80;97.20;;;;;;1673681;29;20210;-72
2022/11/05 08:50:19;;;;;;;6.00;5.55;;;10.80;97.20;;;;;;1673672;29;20229;-72
2022/11/05 08:51:12;;;;;;;5.47;5.07;;;10.80;97.20;;;;;;1673655;29;20851;-72
2022/11/05 08:52:03;;;;;;;5.57;5.00;;;10.90;97.20;;;;;;1673438;29;20205;-72
2022/11/05 08:52:55;;;;;;;5.90;5.30;;;10.90;97.20;;;;;;1673848;29;20206;-72
2022/11/05 08:53:46;;;;;;;5.00;4.60;;;10.90;97.20;;;;;;1673494;29;20241;-72
2022/11/05 08:54:37;;;;;;;5.20;4.80;;;10.90;97.20;;;;;;1672861;29;20201;-72
2022/11/05 08:55:28;;;;;;;5.15;4.75;;;10.90;97.20;;;;;;1673570;29;20222;-71
2022/11/05 08:56:20;;;;;;;5.43;5.03;;;10.90;97.20;;;;;;1673534;29;20657;-72
2022/11/05 08:57:11;;;;;;;5.70;5.13;;;10.90;97.20;;;;;;1673017;29;20465;-72
2022/11/05 08:58:04;;;;;;;5.67;5.17;;;10.90;97.20;;;;;;1673209;29;20699;-72
2022/11/05 08:58:55;;;;;;;5.03;4.63;;;10.90;97.20;;;;;;1673026;29;20213;-71
2022/11/05 08:59:46;;;;;;;4.97;4.57;;;10.90;97.20;;;;;;1673490;29;20301;-72
2022/11/05 09:00:38;;;;;;;4.90;4.50;;;11.00;97.20;;;;;;1673025;29;20229;-72
2022/11/05 09:01:30;;;;;;;5.32;4.93;;;11.00;97.20;;;;;;1673559;29;20223;-72
2022/11/05 09:02:20;;;;;;;5.30;4.45;;;11.00;97.20;;;;;;1673539;29;20214;-72
2022/11/05 09:03:12;;;;;;;5.40;4.90;;;11.00;97.20;;;;;;1673652;29;20202;-72
2022/11/05 09:04:03;;;;;;;4.60;4.22;;;11.00;97.20;;;;;;1672922;29;20707;-72
2022/11/05 09:04:55;;;;;;;4.82;4.50;;;11.00;97.20;;;;;;1673352;29;20297;-72
2022/11/05 09:05:46;;;;;;;4.63;4.22;;;11.00;97.20;;;;;;1673470;29;20194;-71
2022/11/05 09:06:39;;;;;;;5.20;4.70;;;11.10;97.20;;;;;;1673331;29;20198;-73
2022/11/05 09:07:30;;;;;;;4.88;4.47;;;11.10;97.20;;;;;;1673348;29;20470;-72
2022/11/05 09:08:21;;;;;;;4.60;4.20;;;11.10;97.20;;;;;;1672321;29;20200;-73
2022/11/05 09:09:12;;;;;;;4.43;4.05;;;11.20;97.20;;;;;;1673068;29;20657;-72
2022/11/05 09:10:04;;;;;;;5.10;4.70;;;11.20;97.20;;;;;;1673527;29;20589;-71
2022/11/05 09:10:55;;;;;;;4.70;4.30;;;11.20;97.20;;;;;;1672362;29;20217;-71
2022/11/05 09:11:47;;;;;;;5.80;5.40;;;11.20;97.20;;;;;;1673502;29;20206;-71
2022/11/05 09:12:38;;;;;;;5.88;4.50;;;11.30;97.20;;;;;;1673458;29;20698;-72
2022/11/05 09:13:29;;;;;;;6.83;4.73;;;11.40;97.20;;;;;;1673170;29;20212;-72
2022/11/05 09:14:20;;;;;;;4.88;4.38;;;11.40;97.20;;;;;;1672916;29;20225;-70
2022/11/05 09:15:12;;;;;;;4.90;4.38;;;11.50;97.20;;;;;;1673800;29;20213;-72
2022/11/05 09:16:04;;;;;;;4.40;4.00;;;11.60;97.20;;;;;;1673498;29;20234;-71
2022/11/05 09:16:55;;;;;;;4.03;3.70;;;11.60;97.20;;;;;;1673024;29;20241;-71
2022/11/05 09:17:46;;;;;;;4.00;3.60;;;11.60;97.20;;;;;;1673346;29;20213;-71
2022/11/05 09:18:38;;;;;;;4.17;3.77;;;11.70;97.20;;;;;;1671306;29;20226;-71
2022/11/05 09:19:29;;;;;;;4.00;3.70;;;11.70;97.20;;;;;;1673197;29;20202;-71
2022/11/05 09:20:21;;;;;;;4.83;4.43;;;11.70;97.20;;;;;;1673210;29;20265;-71
2022/11/05 09:21:11;;;;;;;4.80;4.40;;;11.80;97.20;;;;;;1672957;29;20206;-71
2022/11/05 09:22:04;;;;;;;4.03;3.73;;;11.80;97.20;;;;;;1673355;29;20198;-71
2022/11/05 09:22:55;;;;;;;4.45;4.05;;;11.90;97.20;;;;;;1673087;29;20205;-71
2022/11/05 09:23:47;;;;;;;4.00;3.60;;;11.90;97.20;;;;;;1669243;29;20206;-71
2022/11/05 09:24:39;;;;;;;4.70;4.30;;;11.90;97.20;;;;;;1672175;29;20462;-71
2022/11/05 09:25:32;;;;;;;4.75;4.35;;;12.00;97.20;;;;;;1672511;29;20237;-72
2022/11/05 09:26:22;;;;;;;5.00;3.75;;;12.00;97.20;;;;;;1671734;29;20228;-71
2022/11/05 09:27:14;;;;;;;4.60;4.20;;;12.00;97.20;;;;;;1673166;29;20204;-71
2022/11/05 09:28:09;;;;;;;4.30;3.90;;;12.00;97.20;;;;;;1672683;29;20240;-71
2022/11/05 09:29:01;;;;;;;11.52;3.70;;;12.00;97.20;;;;;;1672444;29;20242;-71
2022/11/05 09:29:51;;;;;;;4.93;4.10;;;12.00;97.20;;;;;;1673125;29;20202;-72
2022/11/05 09:30:45;;;;;;;4.30;3.90;;;12.00;97.20;;;;;;1673157;29;20316;-69
2022/11/05 09:31:35;;;;;;;3.90;3.60;;;12.00;97.20;;;;;;1672348;29;20210;-69
2022/11/05 09:32:27;;;;;;;4.20;3.80;;;12.00;97.20;;;;;;1672775;29;20202;-70
2022/11/05 09:33:20;;;;;;;3.40;3.13;;;12.00;97.20;;;;;;1673204;29;20197;-71
2022/11/05 09:34:11;;;;;;;3.33;3.05;;;12.00;97.20;;;;;;1672458;29;21146;-72
2022/11/05 09:35:03;;;;;;;3.20;2.90;;;12.00;97.20;;;;;;1672757;29;20206;-68
2022/11/05 09:35:55;;;;;;;3.53;3.22;;;12.00;97.20;;;;;;1673189;29;20226;-69
2022/11/05 09:36:46;;;;;;;3.60;3.22;;;12.00;97.20;;;;;;1672900;29;20270;-71
2022/11/05 09:37:39;;;;;;;3.33;3.05;;;12.00;97.20;;;;;;1673137;29;20297;-71
2022/11/05 09:38:31;;;;;;;3.25;2.95;;;12.00;97.20;;;;;;1668421;29;20214;-71
2022/11/05 09:39:22;;;;;;;3.90;3.58;;;12.00;97.20;;;;;;1672648;29;20209;-71
2022/11/05 09:40:15;;;;;;;3.83;3.53;;;12.00;97.20;;;;;;1673094;29;20222;-71
2022/11/05 09:41:13;;;;;;;3.58;3.28;;;12.10;97.20;;;;;;1673121;29;20984;-71
2022/11/05 09:42:07;;;;;;;3.15;2.95;;;12.10;97.20;;;;;;1673571;29;20244;-71
2022/11/05 09:43:00;;;;;;;3.40;3.10;;;12.20;97.20;;;;;;1672605;29;20721;-71
2022/11/05 09:43:56;;;;;;;3.67;3.30;;;12.20;97.20;;;;;;1672446;29;20209;-71
2022/11/05 09:44:52;;;;;;;3.83;3.20;;;12.30;97.20;;;;;;1672992;29;20220;-71
2022/11/05 09:45:45;;;;;;;3.78;3.47;;;12.30;97.20;;;;;;1672666;29;20205;-70
2022/11/05 09:46:43;;;;;;;3.95;3.65;;;12.30;97.20;;;;;;1673131;29;20217;-71
2022/11/05 09:47:37;;;;;;;4.75;3.83;;;12.30;97.20;;;;;;1673350;29;20202;-71
2022/11/05 09:48:32;;;;;;;3.70;3.40;;;12.30;97.20;;;;;;1671390;29;20577;-71
2022/11/05 09:49:26;;;;;;;4.95;3.67;;;12.30;97.20;;;;;;1672877;29;20202;-71
2022/11/05 09:50:22;;;;;;;3.90;3.53;;;12.30;97.20;;;;;;1672807;29;20205;-71
2022/11/05 09:51:15;;;;;;;4.05;3.58;;;12.30;97.20;;;;;;1673177;29;20583;-72
2022/11/05 09:52:13;;;;;;;3.38;3.08;;;12.30;97.20;;;;;;1673638;29;20273;-71
2022/11/05 09:53:05;;;;;;;5.30;3.60;;;12.30;97.20;;;;;;1674864;29;20209;-72
2022/11/05 09:53:59;;;;;;;4.13;3.05;;;12.30;97.20;;;;;;1674351;29;20209;-71
2022/11/05 09:54:50;;;;;;;4.07;3.08;;;12.30;97.20;;;;;;1673316;29;20202;-71
2022/11/05 09:55:43;;;;;;;4.80;3.30;;;12.30;97.20;;;;;;1672938;29;20337;-73
2022/11/05 09:56:37;;;;;;;3.95;2.80;;;12.30;97.20;;;;;;1673096;29;20201;-73
2022/11/05 09:57:35;;;;;;;3.65;3.03;;;12.30;97.20;;;;;;1672568;29;20202;-72
2022/11/05 09:58:35;;;;;;;4.22;3.28;;;12.30;97.20;;;;;;1671418;29;20201;-72
2022/11/05 09:59:30;;;;;;;3.90;3.22;;;12.30;97.20;;;;;;1672421;29;20217;-73
2022/11/05 10:00:21;;;;;;;3.50;3.17;;;12.30;97.20;;;;;;1672462;29;20210;-73
2022/11/05 10:01:17;;;;;;;3.83;3.42;;;12.30;97.20;;;;;;1672164;29;20269;-73
2022/11/05 10:02:15;;;;;;;3.50;3.20;;;12.30;97.20;;;;;;1672109;29;20202;-73
2022/11/05 10:03:10;;;;;;;3.92;3.63;;;12.40;97.20;;;;;;1672931;29;20202;-73
2022/11/05 10:04:07;;;;;;;4.70;3.50;;;12.40;97.20;;;;;;1672146;29;20221;-73
2022/11/05 10:05:04;;;;;;;3.78;3.10;;;12.40;97.20;;;;;;1672935;29;20202;-73
2022/11/05 10:06:07;;;;;;;3.55;3.22;;;12.30;97.20;;;;;;1672227;29;20222;-73
2022/11/05 10:07:00;;;;;;;4.88;4.38;;;12.30;97.20;;;;;;1672483;29;20210;-73
2022/11/05 10:07:57;;;;;;;3.50;3.20;;;12.30;97.20;;;;;;1672505;29;20699;-73
2022/11/05 10:08:54;;;;;;;3.55;3.25;;;12.20;97.20;;;;;;1671303;29;20309;-73
2022/11/05 10:09:48;;;;;;;3.25;2.95;;;12.20;97.20;;;;;;1672109;29;20697;-73
2022/11/05 10:10:43;;;;;;;4.00;3.60;;;12.20;97.20;;;;;;1672123;29;20218;-73
2022/11/05 10:11:40;;;;;;;3.97;3.47;;;12.20;97.20;;;;;;1672100;29;20241;-73
2022/11/05 10:12:36;;;;;;;3.88;3.58;;;12.10;97.20;;;;;;1672441;29;20269;-73
2022/11/05 10:13:35;;;;;;;3.78;3.42;;;12.10;97.20;;;;;;1672921;29;20205;-73
2022/11/05 10:14:30;;;;;;;3.63;3.15;;;12.10;97.20;;;;;;1672137;29;20675;-73
2022/11/05 10:15:23;;;;;;;2.83;2.63;;;12.00;97.20;;;;;;1672339;29;20661;-73
2022/11/05 10:16:23;;;;;;;3.95;2.90;;;11.90;97.20;;;;;;1672304;29;20829;-73
2022/11/05 10:17:21;;;;;;;3.55;3.25;;;11.90;97.20;;;;;;1672358;29;20210;-74
2022/11/05 10:18:21;;;;;;;4.07;3.58;;;11.90;97.20;;;;;;1671255;29;20209;-74
2022/11/05 10:19:15;;;;;;;2.63;2.42;;;11.80;97.20;;;;;;1672018;29;20209;-74
2022/11/05 10:20:14;;;;;;;3.67;3.28;;;11.80;97.20;;;;;;1672469;29;20226;-73
2022/11/05 10:21:15;;;;;;;3.50;3.20;;;11.80;97.20;;;;;;1672255;29;20622;-73
2022/11/05 10:22:11;;;;;;;3.60;3.30;;;11.80;97.20;;;;;;1672846;29;20202;-73
2022/11/05 10:23:09;;;;;;;3.92;3.53;;;11.70;97.20;;;;;;1672372;29;20210;-73
2022/11/05 10:24:04;;;;;;;3.53;3.22;;;11.80;97.20;;;;;;1671585;29;20210;-73
2022/11/05 10:24:55;;;;;;;3.38;3.08;;;11.70;97.20;;;;;;1672404;29;20273;-74
2022/11/05 10:25:50;;;;;;;4.70;3.07;;;11.70;97.20;;;;;;1672487;29;20273;-73
2022/11/05 10:26:42;;;;;;;4.20;3.90;;;11.70;97.20;;;;;;1672372;29;20887;-74
2022/11/05 10:27:37;;;;;;;4.38;3.78;;;11.70;97.20;;;;;;1672154;29;20201;-73
2022/11/05 10:28:30;;;;;;;4.93;3.80;;;11.60;97.20;;;;;;1670814;29;20852;-74
2022/11/05 10:29:26;;;;;;;5.60;3.95;;;11.60;97.20;;;;;;1672208;29;20209;-73
2022/11/05 10:30:18;;;;;;;4.75;4.28;;;11.60;97.20;;;;;;1672266;29;20213;-74
2022/11/05 10:31:14;;;;;;;4.53;4.13;;;11.60;97.20;;;;;;1672620;29;20194;-74
2022/11/05 10:32:06;;;;;;;4.97;4.30;;;11.50;97.20;;;;;;1671908;29;20202;-73